Nearby METAR Reports

 

EGFF - Cardiff-Wales Ar, United Kingdom
Distance from station: SW 17km
Updated: 24/01/2019 00:50
Mostly cloudy
Mostly cloudy
 Wind from NNE
Wind: NNE 6 km/h
Temperature: 2°C
Dew Point: 1°C
Humidity: 93%
Barometer: 1009 hPa
Clouds: Mostly cloudy
Visibility: 10 km
Cloud details: Few Clouds 671 m
Mostly cloudy 823 m
Mostly cloudy 1158 m
2019/01/24 00:50 EGFF 240050Z AUTO 03003KT 9999 FEW022 BKN027 BKN038 02/01 Q1009
EGDX - St Athan Raf, United Kingdom
Distance from station: SW 20km
Updated: 24/01/2019 00:50
Few Clouds
Few Clouds
 Wind from NNE
Wind: NNE 4 km/h
Temperature: 3°C
Dew Point: 1°C
Humidity: 87%
Barometer: 1009 hPa
Clouds: Few Clouds
Visibility: 10 km
Cloud details: Few Clouds 640 m
2019/01/24 00:50 EGDX 240050Z AUTO 02002KT 9999 FEW021/// 03/01 Q1009
 
EGGD - Bristol/Lulsgate, United Kingdom
Distance from station: ESE 37km
Updated: 24/01/2019 00:50
Clear
Clear
 Wind from SW
Wind: SW 6 km/h
Temperature: 2°C
Dew Point: 1°C
Humidity: 93%
Barometer: 1009 hPa
Clouds: Clear
Visibility: 10 km
2019/01/24 00:50 EGGD 240050Z AUTO 22003KT 9999 NCD 02/01 Q1009
EGDY - Yeovilton (navy), United Kingdom
Distance from station: SE 69km
Updated: 24/01/2019 00:50
Few Clouds
Few Clouds
 Wind from ESE
Wind: ESE 6 km/h
Temperature: -2°C
Dew Point: -2°C
Humidity: 100%
Barometer: 1010 hPa
Clouds: Few Clouds
Visibility: 10 km
Cloud details: Few Clouds 305 m
2019/01/24 00:50 EGDY 240050Z 11003KT 9999 FEW010 M02/M02 Q1010 BLU